Time;durP1;ratioP1;P1;durP2;ratioP2;P2;SDS_P1;SDS_P2;PMS_P1;PMS_P2;Temp;Humidity;BMP_temperature;BMP_pressure;BME280_temperature;BME280_humidity;BME280_pressure;Samples;Min_cycle;Max_cycle;Signal;HPM_P1;HPM_P2
2024/04/04 15:01:32;;;;;;;1.30;0.90;;;16.60;17.40;;;;;;5046895;27;1246876;-89
2024/04/04 15:03:58;;;;;;;3.25;1.20;;;16.50;18.10;;;;;;5064395;28;20268;-84
2024/04/04 15:06:25;;;;;;;1.05;1.00;;;16.60;17.60;;;;;;5066143;28;20649;-84
2024/04/04 15:08:51;;;;;;;1.45;0.80;;;16.60;17.70;;;;;;5070646;28;20197;-86
2024/04/04 15:11:18;;;;;;;2.35;0.88;;;16.70;17.00;;;;;;5061138;28;20204;-87
2024/04/04 15:13:43;;;;;;;1.23;0.95;;;16.80;17.60;;;;;;5064151;28;20193;-87
2024/04/04 15:16:13;;;;;;;1.90;0.93;;;16.90;16.20;;;;;;5063875;28;20198;-86
2024/04/04 15:18:40;;;;;;;1.23;0.88;;;16.90;15.70;;;;;;5070148;28;20190;-88
2024/04/04 15:21:07;;;;;;;1.48;1.10;;;16.90;15.80;;;;;;5069474;28;20697;-87
2024/04/04 15:23:33;;;;;;;1.00;0.80;;;16.90;16.20;;;;;;5066815;28;20197;-87
2024/04/04 15:26:00;;;;;;;1.75;0.90;;;16.80;16.30;;;;;;5067437;28;20201;-85
2024/04/04 15:28:26;;;;;;;1.90;1.20;;;16.80;15.60;;;;;;5068802;28;20201;-88
2024/04/04 15:30:54;;;;;;;2.50;1.00;;;16.80;16.60;;;;;;5066619;28;20203;-87
2024/04/04 15:33:20;;;;;;;1.30;1.00;;;16.70;16.70;;;;;;5063723;28;20210;-86
2024/04/04 15:35:48;;;;;;;2.97;1.10;;;16.60;17.90;;;;;;5067641;28;20219;-87
2024/04/04 15:38:15;;;;;;;2.78;1.02;;;16.70;16.30;;;;;;5067083;28;20281;-88
2024/04/04 15:40:42;;;;;;;1.15;1.05;;;16.70;16.10;;;;;;5062160;28;20831;-85
2024/04/04 15:43:08;;;;;;;0.93;0.80;;;16.60;16.90;;;;;;5071320;28;20216;-87
2024/04/04 15:45:36;;;;;;;1.95;1.20;;;16.50;17.10;;;;;;5069624;28;20220;-85
2024/04/04 15:48:01;;;;;;;2.55;1.20;;;16.50;17.00;;;;;;5053548;28;20283;-86
2024/04/04 15:50:28;;;;;;;2.25;1.10;;;16.40;18.00;;;;;;5060184;28;20300;-86
2024/04/04 15:53:01;;;;;;;4.40;1.05;;;16.30;19.10;;;;;;5063731;28;20201;-92
2024/04/04 15:55:32;;;;;;;1.77;1.15;;;16.10;20.50;;;;;;5056920;28;20665;-87
2024/04/04 15:57:57;;;;;;;1.77;1.17;;;15.90;22.40;;;;;;5054863;28;20194;-86
2024/04/04 16:00:24;;;;;;;1.27;1.00;;;15.70;23.40;;;;;;5062480;28;20235;-87
2024/04/04 16:02:52;;;;;;;1.60;1.00;;;15.50;24.40;;;;;;5060842;28;20208;-87
2024/04/04 16:05:19;;;;;;;2.30;1.10;;;15.40;24.00;;;;;;5053808;28;20281;-87
2024/04/04 16:07:45;;;;;;;1.60;1.30;;;15.30;26.00;;;;;;5056575;28;20280;-87
2024/04/04 16:10:13;;;;;;;2.45;1.38;;;15.30;26.10;;;;;;5070589;28;20634;-86
2024/04/04 16:12:40;;;;;;;2.22;1.15;;;15.20;28.00;;;;;;5042918;28;20206;-86
2024/04/04 16:15:07;;;;;;;2.60;1.25;;;15.00;29.70;;;;;;5044622;28;20285;-87
2024/04/04 16:17:33;;;;;;;2.35;1.00;;;14.90;30.90;;;;;;5043981;28;20214;-87
2024/04/04 16:20:00;;;;;;;2.05;1.17;;;14.90;31.50;;;;;;5041266;28;20236;-87
2024/04/04 16:22:26;;;;;;;2.25;1.00;;;14.80;32.70;;;;;;5048192;28;20209;-87
2024/04/04 16:24:53;;;;;;;1.30;1.00;;;14.80;31.90;;;;;;5045814;28;20194;-85
2024/04/04 16:27:21;;;;;;;1.20;1.00;;;14.70;34.40;;;;;;5039442;28;20201;-86
2024/04/04 16:29:47;;;;;;;1.58;0.98;;;14.70;35.10;;;;;;5047811;28;20248;-86
2024/04/04 16:32:13;;;;;;;1.30;1.20;;;14.70;37.30;;;;;;5039313;28;20224;-87
2024/04/04 16:34:42;;;;;;;4.18;1.55;;;14.70;36.90;;;;;;5049031;28;20652;-88
2024/04/04 16:37:08;;;;;;;2.25;1.13;;;14.60;36.70;;;;;;5056691;28;20255;-90
2024/04/04 16:39:34;;;;;;;2.80;1.20;;;14.70;36.30;;;;;;5043229;28;20198;-88
2024/04/04 16:42:00;;;;;;;3.45;1.20;;;14.80;34.80;;;;;;5049925;28;20212;-89
2024/04/04 16:47:23;;;;;;;1.38;1.10;;;14.80;34.80;;;;;;5093862;22;20245;-88
2024/04/04 16:49:49;;;;;;;2.65;1.50;;;14.80;35.10;;;;;;5032110;28;20201;-86
2024/04/04 16:52:16;;;;;;;3.53;1.40;;;14.80;33.90;;;;;;5008971;28;20210;-87
2024/04/04 16:54:42;;;;;;;1.85;1.33;;;14.80;33.40;;;;;;5032103;28;20202;-88
2024/04/04 16:57:10;;;;;;;2.10;1.50;;;14.80;33.60;;;;;;5031727;28;20574;-87
2024/04/04 16:59:36;;;;;;;4.25;1.67;;;14.80;32.20;;;;;;5027060;28;20234;-88
2024/04/04 17:02:03;;;;;;;2.53;1.40;;;14.80;31.80;;;;;;5010239;28;20194;-87
2024/04/04 17:04:30;;;;;;;1.38;1.20;;;14.80;32.50;;;;;;5034126;28;20288;-87
2024/04/04 17:07:01;;;;;;;4.45;2.00;;;14.80;32.60;;;;;;5007888;28;20207;-89
2024/04/04 17:09:27;;;;;;;2.58;1.30;;;14.90;29.70;;;;;;5021324;28;20205;-88
2024/04/04 17:11:54;;;;;;;2.60;1.50;;;15.00;27.90;;;;;;5025979;28;20206;-88
2024/04/04 17:14:20;;;;;;;2.47;1.70;;;15.10;28.00;;;;;;4994454;28;20215;-88
2024/04/04 17:16:47;;;;;;;2.35;1.52;;;15.00;28.00;;;;;;5010291;28;20202;-89
2024/04/04 17:19:13;;;;;;;5.28;1.27;;;15.00;28.20;;;;;;5011870;28;20206;-87
2024/04/04 17:21:43;;;;;;;2.30;1.25;;;14.90;27.80;;;;;;4998134;28;20215;-90
2024/04/04 17:24:09;;;;;;;2.28;1.20;;;14.90;27.80;;;;;;5026353;28;20195;-88
2024/04/04 17:26:37;;;;;;;2.35;1.27;;;14.90;28.60;;;;;;5028673;28;20268;-87
2024/04/04 17:29:04;;;;;;;1.92;1.23;;;14.90;27.80;;;;;;5026794;28;20666;-90
2024/04/04 17:31:31;;;;;;;4.20;1.10;;;14.90;27.80;;;;;;5025965;28;20190;-86
2024/04/04 17:33:57;;;;;;;1.58;1.02;;;14.90;27.80;;;;;;5026142;28;20289;-90
2024/04/04 17:36:24;;;;;;;1.83;1.20;;;14.90;27.80;;;;;;5001478;28;20233;-88
2024/04/04 17:38:52;;;;;;;3.78;1.42;;;15.00;27.90;;;;;;5028200;28;20726;-83
2024/04/04 17:41:19;;;;;;;1.48;1.10;;;14.90;27.80;;;;;;5027254;28;20725;-86
2024/04/04 17:43:44;;;;;;;3.05;1.27;;;14.90;27.80;;;;;;5029410;28;20226;-85
2024/04/04 17:46:12;;;;;;;2.00;1.10;;;14.90;27.80;;;;;;4995594;28;20215;-89
2024/04/04 17:48:37;;;;;;;1.65;1.10;;;14.90;27.80;;;;;;5017793;28;20198;-89
2024/04/04 17:51:05;;;;;;;1.73;1.10;;;14.80;29.00;;;;;;5028977;28;20204;-86
2024/04/04 17:53:31;;;;;;;3.33;1.20;;;14.80;28.90;;;;;;5008632;28;20668;-90
2024/04/04 17:56:00;;;;;;;4.43;1.10;;;14.70;29.00;;;;;;5034433;28;20289;-91
2024/04/04 17:58:27;;;;;;;2.30;1.00;;;14.70;29.80;;;;;;5038423;28;20229;-88
2024/04/04 18:01:08;;;;;;;2.30;1.33;;;14.70;28.80;;;;;;5037303;28;20306;-85
2024/04/04 18:03:35;;;;;;;3.72;1.30;;;14.80;27.70;;;;;;5015737;28;20245;-89
2024/04/04 18:06:03;;;;;;;2.35;1.33;;;14.70;27.70;;;;;;5007108;28;20264;-90
2024/04/04 18:08:29;;;;;;;3.13;1.80;;;14.70;28.30;;;;;;5029678;28;20210;-90
2024/04/04 18:11:00;;;;;;;4.45;3.22;;;14.70;27.70;;;;;;5027550;28;20213;-91
2024/04/04 18:13:26;;;;;;;4.20;2.22;;;14.70;27.90;;;;;;5026953;28;20234;-88
2024/04/04 18:15:53;;;;;;;2.58;1.40;;;14.70;27.70;;;;;;5030184;28;20234;-88
2024/04/04 18:18:19;;;;;;;1.80;1.40;;;14.60;29.10;;;;;;5016152;28;20221;-89
2024/04/04 18:20:46;;;;;;;1.85;1.70;;;14.60;29.60;;;;;;5009809;28;20229;-89
2024/04/04 18:23:13;;;;;;;3.88;1.60;;;14.50;29.60;;;;;;5033150;28;20208;-89
2024/04/04 18:25:40;;;;;;;1.95;1.40;;;14.60;29.00;;;;;;5012745;28;20198;-89
2024/04/04 18:28:09;;;;;;;2.72;1.52;;;14.50;30.00;;;;;;5028274;28;20203;-89
2024/04/04 18:30:37;;;;;;;1.85;1.27;;;14.50;30.40;;;;;;5026024;28;20214;-89
2024/04/04 18:33:03;;;;;;;2.13;1.40;;;14.40;31.20;;;;;;5029161;28;20203;-88
2024/04/04 18:35:31;;;;;;;2.75;1.42;;;14.30;31.40;;;;;;5011370;28;20234;-90
2024/04/04 18:37:57;;;;;;;2.25;1.40;;;14.30;32.00;;;;;;5023882;28;20675;-91
2024/04/04 18:40:24;;;;;;;1.50;1.30;;;14.20;31.70;;;;;;5027627;28;20218;-89
2024/04/04 18:42:50;;;;;;;1.40;1.27;;;14.30;31.40;;;;;;5008101;28;20198;-89
2024/04/04 18:45:20;;;;;;;3.20;1.38;;;14.30;33.00;;;;;;5026828;28;20244;-88
2024/04/04 18:47:45;;;;;;;3.72;1.50;;;14.20;33.30;;;;;;5020022;28;20672;-89
2024/04/04 18:50:12;;;;;;;2.63;1.30;;;14.00;34.10;;;;;;5030832;28;20281;-88
2024/04/04 18:52:38;;;;;;;1.65;1.25;;;13.80;34.90;;;;;;4997945;28;20206;-90
2024/04/04 18:55:06;;;;;;;2.97;1.40;;;13.80;36.40;;;;;;5028989;28;20245;-89
2024/04/04 18:57:34;;;;;;;2.60;1.40;;;13.70;36.80;;;;;;5025119;28;20190;-90
2024/04/04 19:00:03;;;;;;;3.45;1.67;;;13.70;37.40;;;;;;5025109;28;20285;-90
2024/04/04 19:02:30;;;;;;;2.47;1.75;;;13.70;38.40;;;;;;5026090;28;20207;-89
2024/04/04 19:04:57;;;;;;;3.00;1.60;;;13.70;38.80;;;;;;5009409;28;20202;-89
2024/04/04 19:07:23;;;;;;;2.65;1.48;;;13.70;39.00;;;;;;5027099;28;20237;-89
2024/04/04 19:09:55;;;;;;;3.80;2.28;;;13.80;38.90;;;;;;5025312;28;20265;-90
2024/04/04 19:12:29;;;;;;;2.65;1.60;;;13.80;38.40;;;;;;4991700;28;20210;-88
2024/04/04 19:15:00;;;;;;;4.35;1.60;;;13.80;38.70;;;;;;5014630;28;20202;-93
2024/04/04 19:17:49;;;;;;;1.98;1.60;;;13.90;39.20;;;;;;5021740;28;20582;-89
2024/04/04 19:20:20;;;;;;;4.38;1.52;;;13.80;39.10;;;;;;5008694;28;20203;-89
2024/04/04 19:22:47;;;;;;;3.25;1.80;;;13.80;39.90;;;;;;5024431;28;20206;-89
2024/04/04 19:25:13;;;;;;;1.95;1.70;;;13.80;39.90;;;;;;5024500;28;20238;-89
2024/04/04 19:27:40;;;;;;;2.78;1.77;;;13.80;40.20;;;;;;5024139;28;20202;-89
2024/04/04 19:30:07;;;;;;;2.03;1.50;;;13.80;42.50;;;;;;5023255;28;20202;-88
2024/04/04 19:32:34;;;;;;;3.25;1.90;;;13.80;42.60;;;;;;5027179;28;20401;-89
2024/04/04 19:35:01;;;;;;;3.92;1.67;;;13.80;43.90;;;;;;5028465;28;20286;-89
2024/04/04 19:37:28;;;;;;;2.60;1.70;;;13.70;46.90;;;;;;5028158;28;20233;-89
2024/04/04 19:39:54;;;;;;;2.90;2.13;;;13.80;50.70;;;;;;5024785;28;20790;-91
2024/04/04 19:42:21;;;;;;;4.20;2.17;;;13.90;54.30;;;;;;5021195;28;21299;-88
2024/04/04 19:44:47;;;;;;;4.30;2.50;;;13.90;57.60;;;;;;4990327;28;20214;-88
2024/04/04 19:47:14;;;;;;;5.32;2.10;;;13.90;58.80;;;;;;5028509;28;20211;-89
2024/04/04 19:49:40;;;;;;;5.18;2.70;;;13.90;64.40;;;;;;5030166;28;20327;-89
2024/04/04 19:52:08;;;;;;;5.35;1.90;;;13.80;69.30;;;;;;5029523;28;20293;-88
2024/04/04 19:54:34;;;;;;;3.20;2.45;;;13.70;74.20;;;;;;5012184;28;20199;-89
2024/04/04 19:57:01;;;;;;;2.05;1.80;;;13.80;76.40;;;;;;5027818;28;20209;-88
2024/04/04 19:59:28;;;;;;;2.95;1.67;;;13.70;76.40;;;;;;5029963;28;20369;-89
2024/04/04 20:01:55;;;;;;;3.15;1.50;;;13.60;76.30;;;;;;5030106;28;20715;-90
2024/04/04 20:04:21;;;;;;;5.68;1.95;;;13.50;78.20;;;;;;5028438;28;20260;-88
2024/04/04 20:06:48;;;;;;;3.80;1.70;;;13.50;80.20;;;;;;5033743;28;20611;-88
2024/04/04 20:09:16;;;;;;;3.65;1.70;;;13.30;82.40;;;;;;5034056;28;20248;-87
2024/04/04 20:11:44;;;;;;;6.55;2.15;;;13.20;84.80;;;;;;5031242;28;20195;-89
2024/04/04 20:14:11;;;;;;;4.45;1.92;;;13.10;87.70;;;;;;5029947;28;20214;-89
2024/04/04 20:16:37;;;;;;;5.95;2.30;;;13.00;88.50;;;;;;5011047;28;20326;-90
2024/04/04 20:19:04;;;;;;;3.08;1.90;;;13.00;90.10;;;;;;5033859;28;20716;-89
2024/04/04 20:21:30;;;;;;;3.67;1.83;;;12.90;90.90;;;;;;5032963;28;20226;-89
2024/04/04 20:23:57;;;;;;;2.33;1.85;;;12.90;91.00;;;;;;5017174;28;20198;-89
2024/04/04 20:26:24;;;;;;;2.97;1.98;;;12.80;91.30;;;;;;5016239;28;20288;-89
2024/04/04 20:28:51;;;;;;;3.67;2.05;;;12.90;91.90;;;;;;5017914;28;20253;-89
2024/04/04 20:31:17;;;;;;;2.42;1.80;;;12.90;91.80;;;;;;5031037;28;20203;-88
2024/04/04 20:33:44;;;;;;;2.55;1.65;;;12.90;91.80;;;;;;5028571;28;20203;-88
2024/04/04 20:36:10;;;;;;;3.42;1.73;;;12.80;92.20;;;;;;5017015;28;20206;-89
2024/04/04 20:38:37;;;;;;;2.60;1.85;;;12.90;92.30;;;;;;5029069;28;20229;-89
2024/04/04 20:41:03;;;;;;;4.57;1.80;;;12.80;93.10;;;;;;5039443;28;20218;-88
2024/04/04 20:43:32;;;;;;;5.88;2.30;;;12.80;93.40;;;;;;5019327;28;20254;-88
2024/04/04 20:45:58;;;;;;;4.22;2.10;;;12.80;93.70;;;;;;5014698;28;20243;-89
2024/04/04 20:48:25;;;;;;;4.57;2.30;;;12.60;94.70;;;;;;4999901;28;20565;-89
2024/04/04 20:50:51;;;;;;;4.32;2.05;;;12.50;95.20;;;;;;5032104;28;20226;-89
2024/04/04 20:53:18;;;;;;;4.55;1.98;;;12.40;96.30;;;;;;5017706;28;20247;-89
2024/04/04 20:55:43;;;;;;;2.83;1.98;;;12.30;97.20;;;;;;5032933;28;20199;-89
2024/04/04 20:58:12;;;;;;;3.80;2.28;;;12.30;97.60;;;;;;5032669;28;20205;-89
2024/04/04 21:00:39;;;;;;;4.20;2.25;;;12.20;98.20;;;;;;5032808;28;20230;-89
2024/04/04 21:03:06;;;;;;;4.30;2.53;;;12.20;98.40;;;;;;5032198;28;20200;-89
2024/04/04 21:05:32;;;;;;;3.70;2.25;;;12.20;98.60;;;;;;5015390;28;20652;-89
2024/04/04 21:07:59;;;;;;;5.20;2.97;;;12.20;98.60;;;;;;5029833;28;20202;-89
2024/04/04 21:10:25;;;;;;;5.65;3.33;;;12.30;98.00;;;;;;5000193;28;20202;-89
2024/04/04 21:12:52;;;;;;;6.03;2.60;;;12.40;97.60;;;;;;5017132;28;20202;-88
2024/04/04 21:15:18;;;;;;;3.40;2.20;;;12.50;97.70;;;;;;5033529;28;20228;-88
2024/04/04 21:17:46;;;;;;;5.78;2.50;;;12.40;97.90;;;;;;4996392;28;20648;-89
2024/04/04 21:20:12;;;;;;;3.55;2.20;;;12.40;98.20;;;;;;5032191;28;20206;-89
2024/04/04 21:22:39;;;;;;;5.22;2.40;;;12.30;98.50;;;;;;5028080;28;20224;-89
2024/04/04 21:25:05;;;;;;;4.80;2.20;;;12.30;99.40;;;;;;5014451;28;20285;-86
2024/04/04 21:27:32;;;;;;;4.13;2.72;;;12.30;99.60;;;;;;5030932;28;20281;-88
2024/04/04 21:29:58;;;;;;;6.60;2.42;;;12.30;99.50;;;;;;5004723;28;20301;-89
2024/04/04 21:32:25;;;;;;;5.60;2.55;;;12.30;99.80;;;;;;5030988;28;20262;-88
2024/04/04 21:34:53;;;;;;;4.35;2.60;;;12.20;99.90;;;;;;5030854;28;20321;-88
2024/04/04 21:37:20;;;;;;;4.65;3.00;;;12.20;99.90;;;;;;5031088;28;20648;-89
2024/04/04 21:39:46;;;;;;;6.70;3.40;;;12.20;99.90;;;;;;5027454;28;20199;-87
2024/04/04 21:42:12;;;;;;;9.93;3.50;;;12.20;99.90;;;;;;5030441;28;20236;-88
2024/04/04 21:44:38;;;;;;;6.47;3.42;;;12.00;99.90;;;;;;5030496;28;20219;-89
2024/04/04 21:47:06;;;;;;;4.88;3.08;;;11.90;99.90;;;;;;5010809;28;20209;-88
2024/04/04 21:49:32;;;;;;;4.47;2.50;;;12.00;99.90;;;;;;5028902;28;20202;-88
2024/04/04 21:52:01;;;;;;;5.30;2.78;;;12.00;99.90;;;;;;5025183;28;20675;-89
2024/04/04 21:54:27;;;;;;;5.25;2.85;;;12.00;99.90;;;;;;5005428;28;20211;-88
2024/04/04 21:56:55;;;;;;;4.32;3.05;;;12.00;99.90;;;;;;5028070;28;20245;-88
2024/04/04 21:59:21;;;;;;;4.93;2.85;;;11.90;99.90;;;;;;5029694;28;20205;-88
2024/04/04 22:01:48;;;;;;;6.13;3.10;;;12.00;99.90;;;;;;5031194;28;20301;-88
2024/04/04 22:04:14;;;;;;;8.32;2.90;;;12.00;99.90;;;;;;5026268;28;20191;-88
2024/04/04 22:06:42;;;;;;;4.13;2.70;;;12.00;99.90;;;;;;5008353;28;20191;-88
2024/04/04 22:09:10;;;;;;;4.85;2.58;;;12.10;99.90;;;;;;5035582;28;20194;-88
2024/04/04 22:11:37;;;;;;;4.60;2.78;;;12.20;99.90;;;;;;5013041;28;20211;-88
2024/04/04 22:14:03;;;;;;;4.80;2.60;;;12.20;99.90;;;;;;5013265;28;20220;-87
2024/04/04 22:16:30;;;;;;;3.40;2.45;;;12.10;99.90;;;;;;5028780;28;20648;-88
2024/04/04 22:18:55;;;;;;;3.15;2.33;;;12.10;99.90;;;;;;5022272;28;20212;-87
2024/04/04 22:21:22;;;;;;;4.25;2.50;;;12.00;99.90;;;;;;5030457;28;20234;-86
2024/04/04 22:23:49;;;;;;;3.95;2.67;;;11.90;99.90;;;;;;5014396;28;20285;-86
2024/04/04 22:26:17;;;;;;;4.45;2.38;;;11.80;99.90;;;;;;5015786;28;20368;-85
2024/04/04 22:28:43;;;;;;;7.53;2.42;;;11.80;99.90;;;;;;5029628;28;20209;-86
2024/04/04 22:31:10;;;;;;;3.63;1.95;;;11.90;99.90;;;;;;5028844;28;20202;-86
2024/04/04 22:33:37;;;;;;;3.10;1.83;;;11.80;99.90;;;;;;5027384;28;20202;-86
2024/04/04 22:36:04;;;;;;;3.00;1.70;;;11.80;99.90;;;;;;5012959;28;20226;-87
2024/04/04 22:38:30;;;;;;;4.20;2.15;;;11.80;99.90;;;;;;5030927;28;20202;-87
2024/04/04 22:40:58;;;;;;;4.60;2.40;;;11.80;99.90;;;;;;5026286;22;20269;-88
2024/04/04 22:43:25;;;;;;;4.75;2.28;;;11.70;99.90;;;;;;5022379;28;21302;-87
2024/04/04 22:45:52;;;;;;;4.65;2.30;;;11.70;99.90;;;;;;5023857;28;20696;-87
2024/04/04 22:48:20;;;;;;;4.60;2.10;;;11.60;99.90;;;;;;5014126;28;20195;-86
2024/04/04 22:50:47;;;;;;;2.45;1.98;;;11.60;99.90;;;;;;5011711;28;20205;-86
2024/04/04 22:53:13;;;;;;;4.68;1.77;;;11.60;99.90;;;;;;5029011;28;20211;-86
2024/04/04 22:55:40;;;;;;;3.35;1.55;;;11.60;99.90;;;;;;5026295;28;20207;-86
2024/04/04 22:58:06;;;;;;;4.15;1.75;;;11.60;99.90;;;;;;5030526;28;20226;-87
2024/04/04 23:15:49;;;;;;;4.05;1.63;;;11.60;99.90;;;;;;5010024;28;20285;-88
2024/04/04 23:18:15;;;;;;;4.55;1.65;;;11.60;99.90;;;;;;5003546;28;20290;-88
2024/04/04 23:20:42;;;;;;;3.80;1.40;;;11.60;99.90;;;;;;5015151;28;20659;-87
2024/04/04 23:23:08;;;;;;;3.35;1.60;;;11.50;99.90;;;;;;5014898;28;20209;-87
2024/04/04 23:25:35;;;;;;;2.45;1.50;;;11.50;99.90;;;;;;5022841;28;20200;-87
2024/04/04 23:28:04;;;;;;;3.40;1.45;;;11.50;99.90;;;;;;5016144;28;20648;-88
2024/04/04 23:30:31;;;;;;;2.38;1.50;;;11.40;99.90;;;;;;5014701;28;20234;-88
2024/04/04 23:32:58;;;;;;;4.60;1.67;;;11.40;99.90;;;;;;5007858;28;20218;-88
2024/04/04 23:35:25;;;;;;;3.88;1.42;;;11.40;99.90;;;;;;5006417;28;20573;-87
2024/04/04 23:37:55;;;;;;;2.65;1.80;;;11.40;99.90;;;;;;5035448;28;20640;-88
2024/04/04 23:40:23;;;;;;;2.58;1.70;;;11.40;99.90;;;;;;5019640;28;20719;-87
2024/04/04 23:42:50;;;;;;;4.35;1.63;;;11.50;99.90;;;;;;5037622;28;20206;-88
2024/04/04 23:46:15;;;;;;;5.80;1.38;;;11.40;99.90;;;;;;5019707;28;20198;-87
2024/04/04 23:53:24;;;;;;;3.20;1.77;;;11.40;99.90;;;;;;5012246;28;20546;-88
2024/04/04 23:59:56;;;;;;;5.70;2.17;;;11.40;99.90;;;;;;4997561;28;20218;-88
